North Labrador Coast: Past 24 Hour Conditions

 

Hall Beach Airport

11:00 PM EST 22 November 2014
This table is a summary of hourly weather conditions for the past 24 hours.
Date / Time
(EST)
Wind(knots) Conditions Visibility(km) Pressure(kPa) Air tempC) Relative humidity(%) Dew pointC) Wind Chill
22 November 2014
23:00 SSE 10 Cloudy 16 99.4 -12 81 -15 -20
22:00 S 7 Light Snow 10 99.4 -12 87 -14 -19
21:00 ESE 11 Light Snow 16 99.4 -12 81 -14 -20
20:00 ESE 15 Light Snow 3 99.3 -12 87 -14 -22
19:00 ENE 8 Light Snow 2 99.3 -11 90 -13 -19
18:00 ENE 10 Light Snow 3 99.4 -12 90 -13 -20
17:00 ENE 8 Light Snow 6 99.4 -12 90 -14 -20
16:00 ENE 11 Light Snow 3 99.4 -13 88 -14 -21
15:00 ENE 13 Light Snow 3 99.4 -13 89 -14 -22
14:00 ENE 11 Light Snow 8 99.4 -13 88 -14 -21
13:00 ENE 11 Light Snow 13 99.4 -13 88 -15 -22
12:00 ENE 11 Light Snow 8 99.5 -13 88 -15 -22
11:00 E 12 Light Snow 6 99.5 -14 89 -15 -23
10:00 ENE 11 Light Snow 11 99.5 -13 86 -15 -22
9:00 NNE 7 Light Snow 8 99.6 -15 88 -16 -22
8:00 NE 6 Light Snow 15 99.6 -15 85 -17 -21
7:00 SE 4 Light Snow 19 99.6 -15 81 -18 -20
6:00 SSE 6 Cloudy 16 99.6 -15 81 -18 -22
5:00 S 2 Cloudy 16 99.6 -16 80 -19 -19
4:00 NNW 6 Light Snow 16 99.6 -18 86 -20 -26
3:00 NNW 7 Light Snow 13 99.6 -19 86 -21 -27
2:00 NNW 8 Cloudy 16 99.6 -20 86 -21 -29
1:00 NW 9 Light Snow 11 99.6 -20 86 -22 -29
0:00 NW 9 Cloudy 16 99.6 -20 85 -22 -30
21 November 2014
23:00 E 4 Cloudy 16 99.6 -19 82 -21 -25
 
Map of Arctic - Eastern Arctic marine weather areas Baker Lake Airport Chesterfield Inlet Airport Coral Harbour Airport Gjoa Haven Airport Kugaaruk Airport Rankin Inlet Airport Shepherd Bay Airport Whale Cove Airport Arctic Bay Brevoort Island Qikiqtarjuaq Airport Cape Dorset Airport Cape Dyer Cape Hooper Clyde Airport Grise Fiord Airport Hall Beach Airport Igloolik Airport Iqaluit Airport Longstaff Bluff Pangnirtung Airport Pond Inlet Airport Repulse Bay Airport Resolute Airport Resolution Island Rowley Island Airport Taloyoak Airport Wager Bay Akulivik Airport Ivujivik Airport Puvirnituq Airport Kangiqsujuaq Airport Kangirsuk Airport Quaqtaq Airport Tasiujaq Airport Cape Kakkiviak Cape Kiglapait Nain Airport Saglek Cape Mercy Kimmirut Airport Aupaluk Airport Salluit Airport Kangiqsualujjuaq Airport Fort Ross
Legend: buoyBuoy land stationLand Station